Time;durP1;ratioP1;P1;durP2;ratioP2;P2;SDS_P1;SDS_P2;PMS_P1;PMS_P2;Temp;Humidity;BMP_temperature;BMP_pressure;BME280_temperature;BME280_humidity;BME280_pressure;Samples;Min_cycle;Max_cycle;Signal;HPM_P1;HPM_P2
2021/07/08 00:00:07;;;;;;;1999.90;999.90;;;;;;;21.04;91.26;95984.47;5112683;28;20195;-68
2021/07/08 00:02:34;;;;;;;1999.90;999.90;;;;;;;21.06;91.51;95979.63;5112710;28;20183;-68
2021/07/08 00:05:01;;;;;;;1999.90;999.90;;;;;;;21.05;91.49;95981.50;5112609;28;20194;-69
2021/07/08 00:07:28;;;;;;;1999.90;999.90;;;;;;;21.20;90.88;95977.28;5112605;28;20278;-69
2021/07/08 00:09:55;;;;;;;1999.90;999.90;;;;;;;21.15;91.32;95982.06;5112485;28;20202;-68
2021/07/08 00:12:23;;;;;;;1999.90;999.90;;;;;;;21.04;91.62;95990.53;5110976;28;20730;-68
2021/07/08 00:14:51;;;;;;;1999.90;999.90;;;;;;;21.07;91.79;95983.03;5112365;28;20272;-68
2021/07/08 00:17:18;;;;;;;1999.90;999.90;;;;;;;20.94;92.35;95985.03;5112381;28;20218;-69
2021/07/08 00:19:48;;;;;;;1999.90;999.90;;;;;;;20.96;92.40;95990.75;5112206;28;20202;-69
2021/07/08 00:22:15;;;;;;;1999.90;999.90;;;;;;;20.87;93.13;95988.28;5112005;28;20629;-69
2021/07/08 00:24:42;;;;;;;1999.90;999.90;;;;;;;20.93;92.49;95986.91;5111477;28;20218;-69
2021/07/08 00:27:09;;;;;;;1999.90;999.90;;;;;;;20.96;92.19;95980.19;5112219;28;20617;-68
2021/07/08 00:29:36;;;;;;;1999.90;999.90;;;;;;;20.98;91.78;95988.50;5111719;28;20206;-69
2021/07/08 00:32:05;;;;;;;1999.90;999.90;;;;;;;20.98;91.55;95981.34;5111716;28;20674;-69
2021/07/08 00:34:32;;;;;;;1999.90;999.90;;;;;;;20.92;91.92;95989.91;5111891;28;20231;-67
2021/07/08 00:36:59;;;;;;;1999.90;999.90;;;;;;;20.71;93.18;95989.47;5112073;28;20320;-69
2021/07/08 00:39:27;;;;;;;1999.90;999.90;;;;;;;20.57;94.56;95990.66;5111724;28;20232;-67
2021/07/08 00:41:54;;;;;;;1999.90;999.90;;;;;;;20.56;94.62;95993.69;5111626;28;20265;-69
2021/07/08 00:44:21;;;;;;;1999.90;999.90;;;;;;;20.43;95.58;95985.09;5111625;28;20676;-68
2021/07/08 00:46:48;;;;;;;1999.90;999.90;;;;;;;20.34;95.48;95992.44;5111553;28;20195;-68
2021/07/08 00:49:17;;;;;;;1999.90;999.90;;;;;;;20.19;96.52;95993.94;5111680;28;20202;-69
2021/07/08 00:51:44;;;;;;;1999.90;999.90;;;;;;;20.24;96.08;95995.56;5111640;28;20282;-68
2021/07/08 00:54:12;;;;;;;1999.90;999.90;;;;;;;20.19;96.32;95991.31;5111493;28;20275;-69
2021/07/08 00:56:39;;;;;;;1999.90;999.90;;;;;;;20.21;96.43;95996.25;5111578;28;20219;-69
2021/07/08 00:59:08;;;;;;;1999.90;999.90;;;;;;;20.09;97.32;95986.56;5111159;28;20198;-68
2021/07/08 01:01:36;;;;;;;1999.90;999.90;;;;;;;20.11;97.00;95994.13;5111340;28;20256;-69
2021/07/08 01:04:04;;;;;;;1999.90;999.90;;;;;;;20.10;96.64;95987.31;5111023;28;20256;-67
2021/07/08 01:06:33;;;;;;;1999.90;999.90;;;;;;;20.01;96.44;95984.88;5110784;28;20260;-69
2021/07/08 01:09:01;;;;;;;1999.90;999.90;;;;;;;19.94;97.12;95991.81;5111466;28;20198;-68
2021/07/08 01:11:29;;;;;;;1999.90;999.90;;;;;;;19.73;97.26;95987.56;5110946;27;20195;-68
2021/07/08 01:13:56;;;;;;;1999.90;999.90;;;;;;;19.66;97.95;95995.31;5111349;28;20686;-67
2021/07/08 01:16:24;;;;;;;1999.90;999.90;;;;;;;19.59;97.69;95989.06;5111027;28;20207;-68
2021/07/08 01:18:51;;;;;;;1999.90;999.90;;;;;;;19.56;97.69;95987.13;5110958;28;20202;-68
2021/07/08 01:21:25;;;;;;;1999.90;999.90;;;;;;;19.52;98.39;95986.28;5110739;28;20187;-69
2021/07/08 01:23:53;;;;;;;1999.90;999.90;;;;;;;19.53;98.64;95990.44;5110590;28;20195;-70
2021/07/08 01:26:20;;;;;;;1999.90;999.90;;;;;;;19.50;98.85;95991.88;5111043;28;20199;-69
2021/07/08 01:28:49;;;;;;;1999.90;999.90;;;;;;;19.45;99.25;95997.41;5110601;28;20257;-70
2021/07/08 01:31:16;;;;;;;1999.90;999.90;;;;;;;19.40;99.26;95997.59;5110763;28;20199;-70
2021/07/08 01:33:44;;;;;;;1999.90;999.90;;;;;;;19.31;98.67;95997.00;5110570;28;20199;-69
2021/07/08 01:36:11;;;;;;;1999.90;999.90;;;;;;;19.23;99.26;95998.66;5110804;28;20663;-70
2021/07/08 01:38:39;;;;;;;1999.90;999.90;;;;;;;19.22;99.69;96002.44;5113341;27;20219;-71
2021/07/08 01:41:07;;;;;;;1999.90;999.90;;;;;;;19.23;99.77;95998.66;5110307;28;20226;-70
2021/07/08 01:43:37;;;;;;;1999.90;999.90;;;;;;;19.17;99.81;96000.03;5110644;28;20195;-67
2021/07/08 01:46:05;;;;;;;1999.90;999.90;;;;;;;19.13;99.64;96001.78;5110629;28;20207;-66
2021/07/08 01:48:32;;;;;;;1999.90;999.90;;;;;;;19.12;99.99;96007.41;5110505;28;21006;-66
2021/07/08 01:51:03;;;;;;;1999.90;999.90;;;;;;;19.15;100.00;96002.22;5110617;28;20553;-66
2021/07/08 01:53:30;;;;;;;1999.90;999.90;;;;;;;19.27;99.33;96004.06;5110269;28;20184;-66
2021/07/08 01:55:59;;;;;;;1999.90;999.90;;;;;;;19.23;99.57;96005.81;5110345;28;20282;-66
2021/07/08 01:58:26;;;;;;;1999.90;999.90;;;;;;;19.16;100.00;96006.38;5110184;28;20276;-69
2021/07/08 02:00:54;;;;;;;1999.90;999.90;;;;;;;19.10;100.00;96009.59;5110247;28;20244;-71
2021/07/08 02:03:21;;;;;;;1999.90;999.90;;;;;;;19.03;100.00;96012.03;5109920;28;20675;-69
2021/07/08 02:05:48;;;;;;;1999.90;999.90;;;;;;;19.05;100.00;96007.97;5109992;28;20234;-70
2021/07/08 02:08:15;;;;;;;1999.90;999.90;;;;;;;18.94;100.00;96004.25;5110208;28;20244;-68
2021/07/08 02:10:42;;;;;;;1999.90;999.90;;;;;;;18.95;100.00;95997.13;5109823;28;20207;-67
2021/07/08 02:13:11;;;;;;;1999.90;999.90;;;;;;;19.02;100.00;95999.97;5109863;28;20195;-67
2021/07/08 02:15:38;;;;;;;1999.90;999.90;;;;;;;18.92;100.00;95996.72;5106337;28;20259;-68
2021/07/08 02:18:07;;;;;;;1999.90;999.90;;;;;;;18.88;100.00;95995.81;5101050;28;20777;-68
2021/07/08 02:20:34;;;;;;;1999.90;999.90;;;;;;;18.84;100.00;96002.09;5109319;28;20202;-67
2021/07/08 02:23:01;;;;;;;1999.90;999.90;;;;;;;18.88;100.00;96008.22;5109645;28;20255;-68
2021/07/08 02:25:28;;;;;;;1999.90;999.90;;;;;;;18.80;100.00;95998.59;5109798;28;20251;-67
2021/07/08 02:27:57;;;;;;;1999.90;999.90;;;;;;;18.77;100.00;96007.16;5109848;28;20727;-68
2021/07/08 02:30:28;;;;;;;1999.90;999.90;;;;;;;18.73;100.00;95999.16;5109099;28;20216;-69
2021/07/08 02:32:57;;;;;;;1999.90;999.90;;;;;;;18.77;100.00;95997.41;5109694;28;20601;-67
2021/07/08 02:35:25;;;;;;;1999.90;999.90;;;;;;;18.86;100.00;95995.41;5108595;28;20231;-67
2021/07/08 02:37:53;;;;;;;1999.90;999.90;;;;;;;18.79;100.00;96000.44;5109479;28;20219;-67
2021/07/08 02:40:23;;;;;;;1999.90;999.90;;;;;;;18.75;100.00;95999.59;5109037;28;20268;-68
2021/07/08 02:42:52;;;;;;;1999.90;999.90;;;;;;;18.67;100.00;95997.09;5109615;28;20179;-69
2021/07/08 02:45:22;;;;;;;1999.90;999.90;;;;;;;18.55;100.00;96008.41;5109517;28;20206;-68
2021/07/08 02:47:51;;;;;;;1999.90;999.90;;;;;;;18.77;100.00;96007.94;5105565;28;20207;-69
2021/07/08 02:50:19;;;;;;;1999.90;999.90;;;;;;;18.73;100.00;96009.66;5088940;28;20627;-68
2021/07/08 02:52:47;;;;;;;1999.90;999.90;;;;;;;18.71;100.00;96011.13;5095038;28;20203;-70
2021/07/08 02:55:14;;;;;;;1999.90;999.90;;;;;;;18.78;100.00;96011.34;5108831;28;20289;-70
2021/07/08 02:57:45;;;;;;;1999.90;999.90;;;;;;;18.73;100.00;96016.84;5109434;28;20299;-69
2021/07/08 03:00:14;;;;;;;1999.90;999.90;;;;;;;18.76;100.00;96024.81;5109501;28;20198;-69
2021/07/08 03:02:41;;;;;;;1999.90;999.90;;;;;;;18.73;100.00;96016.84;5108558;28;20199;-69
2021/07/08 03:05:12;;;;;;;1999.90;999.90;;;;;;;18.59;100.00;96026.91;5108631;28;20590;-69
2021/07/08 03:07:39;;;;;;;1999.90;999.90;;;;;;;18.70;100.00;96017.47;5108987;28;20206;-68
2021/07/08 03:10:08;;;;;;;1999.90;999.90;;;;;;;18.74;100.00;96024.38;5109279;28;20199;-68
2021/07/08 03:12:35;;;;;;;1999.90;999.90;;;;;;;18.75;100.00;96023.28;5109286;28;20632;-70
2021/07/08 03:15:02;;;;;;;1999.90;999.90;;;;;;;18.79;100.00;96034.69;5111858;28;20199;-70
2021/07/08 03:17:29;;;;;;;1999.90;999.90;;;;;;;18.81;100.00;96029.09;5109833;28;20215;-70
2021/07/08 03:19:56;;;;;;;1999.90;999.90;;;;;;;18.84;100.00;96031.06;5108066;28;20439;-70
2021/07/08 03:22:25;;;;;;;1999.90;999.90;;;;;;;18.81;100.00;96034.38;5107924;28;20758;-68
2021/07/08 03:24:52;;;;;;;1999.90;999.90;;;;;;;18.81;100.00;96035.13;5108823;28;20206;-71
2021/07/08 03:27:19;;;;;;;1999.90;999.90;;;;;;;18.79;100.00;96032.06;5108786;28;20736;-71
2021/07/08 03:29:46;;;;;;;1999.90;999.90;;;;;;;18.61;100.00;96041.31;5109026;28;20615;-71
2021/07/08 03:32:13;;;;;;;1999.90;999.90;;;;;;;18.68;100.00;96044.13;5108934;28;20203;-70
2021/07/08 03:34:41;;;;;;;1999.90;999.90;;;;;;;18.67;100.00;96036.59;5091373;28;20204;-72
2021/07/08 03:37:08;;;;;;;1999.90;999.90;;;;;;;18.78;100.00;96043.69;5098400;28;20289;-70
2021/07/08 03:39:36;;;;;;;1999.90;999.90;;;;;;;18.79;100.00;96037.31;5104556;28;20273;-71
2021/07/08 03:42:04;;;;;;;1999.90;999.90;;;;;;;18.81;100.00;96050.94;5107273;28;20234;-72
2021/07/08 03:44:31;;;;;;;1999.90;999.90;;;;;;;18.69;100.00;96053.56;5093487;27;20616;-71
2021/07/08 03:46:58;;;;;;;1999.90;999.90;;;;;;;18.73;100.00;96051.81;5098882;28;20672;-68
2021/07/08 03:49:25;;;;;;;1999.90;999.90;;;;;;;18.82;100.00;96051.72;5092157;28;20196;-73
2021/07/08 03:51:52;;;;;;;1999.90;999.90;;;;;;;18.87;100.00;96056.75;5091875;28;20752;-75
2021/07/08 03:54:19;;;;;;;1999.90;999.90;;;;;;;18.92;100.00;96067.81;5091397;28;20261;-73
2021/07/08 03:56:48;;;;;;;1999.90;999.90;;;;;;;18.96;100.00;96060.03;5090595;28;20199;-72
2021/07/08 03:59:15;;;;;;;1999.90;999.90;;;;;;;19.00;100.00;96049.56;5090149;28;20232;-72
2021/07/08 04:01:42;;;;;;;1999.90;999.90;;;;;;;19.09;100.00;96055.47;5090319;28;20233;-72
2021/07/08 04:04:10;;;;;;;1999.90;999.90;;;;;;;19.15;100.00;96059.41;5108639;28;20666;-77
2021/07/08 04:06:37;;;;;;;1999.90;999.90;;;;;;;19.26;100.00;96060.50;5107032;27;20207;-79
2021/07/08 04:09:04;;;;;;;1999.90;999.90;;;;;;;19.33;100.00;96061.44;5101741;28;20347;-70
2021/07/08 04:11:31;;;;;;;1999.90;999.90;;;;;;;19.42;100.00;96066.59;5111035;28;20191;-71
2021/07/08 04:13:59;;;;;;;1999.90;999.90;;;;;;;19.54;100.00;96058.66;5111832;28;20260;-70
2021/07/08 04:16:26;;;;;;;1999.90;999.90;;;;;;;19.58;100.00;96053.47;5112348;28;20696;-70
2021/07/08 04:18:54;;;;;;;1999.90;999.90;;;;;;;19.66;100.00;96061.25;5112335;28;20613;-71
2021/07/08 04:21:21;;;;;;;1999.90;999.90;;;;;;;19.71;100.00;96061.00;5112187;28;20195;-71
2021/07/08 04:23:48;;;;;;;1999.90;999.90;;;;;;;19.85;100.00;96059.81;5112045;28;20691;-71
2021/07/08 04:26:15;;;;;;;1999.90;999.90;;;;;;;20.05;100.00;96064.09;5111974;28;20898;-70
2021/07/08 04:28:42;;;;;;;1999.90;999.90;;;;;;;20.25;100.00;96062.31;5111838;28;20738;-69
2021/07/08 04:31:15;;;;;;;1999.90;999.90;;;;;;;20.41;99.80;96066.53;5111979;28;20199;-71
2021/07/08 04:33:43;;;;;;;1999.90;999.90;;;;;;;20.81;99.75;96063.66;5111815;28;20180;-72
2021/07/08 04:36:12;;;;;;;1999.90;999.90;;;;;;;21.26;96.30;96079.00;5111749;28;20192;-72
2021/07/08 04:38:40;;;;;;;1999.90;999.90;;;;;;;21.68;94.60;96080.94;5111593;28;20258;-72
2021/07/08 04:41:07;;;;;;;1999.90;999.90;;;;;;;22.21;90.55;96085.34;5111497;28;20273;-72
2021/07/08 04:43:34;;;;;;;1999.90;999.90;;;;;;;22.51;89.55;96092.63;5111716;28;20248;-69
2021/07/08 04:46:01;;;;;;;1999.90;999.90;;;;;;;23.01;86.95;96088.84;5111876;28;20199;-71
2021/07/08 04:48:30;;;;;;;1999.90;999.90;;;;;;;23.21;87.68;96086.81;5111658;28;20616;-69
2021/07/08 04:51:00;;;;;;;1999.90;999.90;;;;;;;23.52;85.82;96086.47;5111438;28;20195;-69
2021/07/08 04:53:27;;;;;;;1999.90;999.90;;;;;;;23.59;84.99;96087.31;5111349;28;20213;-71
2021/07/08 04:55:54;;;;;;;1999.90;999.90;;;;;;;23.71;84.15;96094.25;5110988;27;20252;-69
2021/07/08 04:58:21;;;;;;;1999.90;999.90;;;;;;;23.89;84.87;96092.56;5110705;28;20227;-70
2021/07/08 05:00:48;;;;;;;1999.90;999.90;;;;;;;24.12;83.10;96096.94;5110984;28;20639;-69
2021/07/08 05:03:16;;;;;;;1999.90;999.90;;;;;;;24.12;83.79;96095.06;5111320;28;20203;-71
2021/07/08 05:05:44;;;;;;;1999.90;999.90;;;;;;;24.14;83.29;96103.44;5111386;28;20195;-70
2021/07/08 05:08:11;;;;;;;1999.90;999.90;;;;;;;24.17;83.48;96105.38;5111169;28;21039;-70
2021/07/08 05:10:38;;;;;;;1999.90;999.90;;;;;;;24.09;84.38;96106.44;5111337;28;20200;-68
2021/07/08 05:13:05;;;;;;;1999.90;999.90;;;;;;;24.18;83.51;96111.47;5111087;28;20885;-66
2021/07/08 05:15:35;;;;;;;1999.90;999.90;;;;;;;24.21;82.73;96106.19;5111302;28;20228;-70
2021/07/08 05:18:02;;;;;;;1999.90;999.90;;;;;;;24.26;82.03;96113.81;5111128;28;20223;-70
2021/07/08 05:20:29;;;;;;;1999.90;999.90;;;;;;;24.46;81.94;96116.28;5110814;28;20689;-69
2021/07/08 05:23:00;;;;;;;1999.90;999.90;;;;;;;24.71;81.81;96120.66;5110923;28;20309;-69
2021/07/08 05:25:27;;;;;;;1999.90;999.90;;;;;;;24.77;81.09;96119.19;5111047;28;20679;-63
2021/07/08 05:27:55;;;;;;;1999.90;999.90;;;;;;;24.86;79.23;96122.28;5110962;28;20191;-64
2021/07/08 05:30:22;;;;;;;1999.90;999.90;;;;;;;24.94;79.39;96122.38;5110457;28;20195;-64
2021/07/08 05:32:49;;;;;;;1999.90;999.90;;;;;;;24.97;79.74;96117.06;5111380;27;20619;-66
2021/07/08 05:35:17;;;;;;;1999.90;999.90;;;;;;;25.09;78.58;96121.31;5112760;27;20576;-64
2021/07/08 05:37:44;;;;;;;1999.90;999.90;;;;;;;25.14;78.86;96124.41;5110692;28;20260;-65
2021/07/08 05:40:13;;;;;;;1999.90;999.90;;;;;;;25.15;77.48;96133.16;5110174;28;20195;-70
2021/07/08 05:42:40;;;;;;;1999.90;999.90;;;;;;;25.00;78.26;96132.28;5110834;28;20192;-70
2021/07/08 05:45:08;;;;;;;1999.90;999.90;;;;;;;24.88;79.09;96123.84;5110732;28;20983;-70
2021/07/08 05:47:35;;;;;;;1999.90;999.90;;;;;;;25.16;77.54;96132.75;5110340;28;20663;-70
2021/07/08 05:50:03;;;;;;;1999.90;999.90;;;;;;;25.39;76.77;96131.75;5110164;28;20199;-70
2021/07/08 05:52:30;;;;;;;1999.90;999.90;;;;;;;25.73;76.02;96132.28;5110494;28;20210;-67
2021/07/08 05:54:57;;;;;;;1999.90;999.90;;;;;;;25.82;76.04;96130.81;5109993;28;20206;-69
2021/07/08 05:57:25;;;;;;;1999.90;999.90;;;;;;;25.61;76.57;96141.38;5110066;28;20195;-71
2021/07/08 05:59:54;;;;;;;1999.90;999.90;;;;;;;25.69;76.63;96132.28;5110185;28;20296;-70
2021/07/08 06:02:21;;;;;;;1999.90;999.90;;;;;;;25.79;75.45;96131.56;5110247;28;20567;-69
2021/07/08 06:04:48;;;;;;;1999.90;999.90;;;;;;;25.63;75.34;96134.56;5109985;28;20272;-69
2021/07/08 06:07:15;;;;;;;1999.90;999.90;;;;;;;26.03;75.31;96130.09;5109731;28;20199;-70
2021/07/08 06:09:43;;;;;;;1999.90;999.90;;;;;;;26.20;74.37;96132.06;5109068;28;20252;-66
2021/07/08 06:12:10;;;;;;;1999.90;999.90;;;;;;;26.31;74.30;96140.06;5109561;28;20199;-66
2021/07/08 06:14:38;;;;;;;1999.90;999.90;;;;;;;26.36;73.75;96137.81;5109558;28;20195;-66
2021/07/08 06:17:07;;;;;;;1999.90;999.90;;;;;;;26.46;74.02;96139.72;5109964;28;20737;-67
2021/07/08 06:19:34;;;;;;;1999.90;999.90;;;;;;;26.91;72.26;96138.22;5109454;28;20224;-68
2021/07/08 06:22:01;;;;;;;1999.90;999.90;;;;;;;26.97;71.85;96133.25;5109658;28;20201;-67
2021/07/08 06:24:28;;;;;;;1999.90;999.90;;;;;;;26.93;72.73;96135.19;5109425;28;20289;-67
2021/07/08 06:26:55;;;;;;;1999.90;999.90;;;;;;;27.07;70.65;96135.16;5109448;28;20207;-68
2021/07/08 06:29:22;;;;;;;1999.90;999.90;;;;;;;27.15;70.64;96133.25;5109350;28;20742;-69
2021/07/08 06:31:50;;;;;;;1999.90;999.90;;;;;;;26.94;70.59;96134.03;5108987;28;20202;-69
2021/07/08 06:34:17;;;;;;;1999.90;999.90;;;;;;;26.97;71.93;96143.94;5109271;28;20218;-68
2021/07/08 06:36:44;;;;;;;1999.90;999.90;;;;;;;27.08;70.13;96131.34;5109430;28;20199;-67
2021/07/08 06:39:12;;;;;;;1999.90;999.90;;;;;;;26.90;71.30;96143.94;5109087;28;20223;-68
2021/07/08 06:41:39;;;;;;;1999.90;999.90;;;;;;;27.35;69.02;96135.09;5109196;28;20237;-68
2021/07/08 06:44:06;;;;;;;1999.90;999.90;;;;;;;27.15;70.27;96135.91;5109328;28;20230;-77
2021/07/08 06:46:33;;;;;;;1999.90;999.90;;;;;;;27.05;71.51;96134.75;5109509;28;20203;-74
2021/07/08 06:49:02;;;;;;;1999.90;999.90;;;;;;;27.18;70.47;96138.56;5109243;28;20203;-76
2021/07/08 06:51:30;;;;;;;1999.90;999.90;;;;;;;27.62;67.97;96134.66;5109041;28;20206;-74
2021/07/08 06:53:57;;;;;;;1999.90;999.90;;;;;;;27.76;68.17;96132.69;5109376;27;20362;-73
2021/07/08 06:56:25;;;;;;;1999.90;999.90;;;;;;;27.62;69.79;96131.97;5108969;28;20199;-73
2021/07/08 06:58:53;;;;;;;1999.90;999.90;;;;;;;27.88;68.21;96136.84;5109137;28;20283;-74
2021/07/08 07:01:20;;;;;;;1999.90;999.90;;;;;;;27.79;69.52;96133.84;5109235;28;20654;-73
2021/07/08 07:03:47;;;;;;;1999.90;999.90;;;;;;;27.98;68.81;96135.25;5109355;28;21026;-74
2021/07/08 07:06:16;;;;;;;1999.90;999.90;;;;;;;28.27;66.16;96125.94;5109298;28;20731;-72
2021/07/08 07:08:43;;;;;;;1999.90;999.90;;;;;;;28.37;67.07;96125.13;5109103;28;20202;-72
2021/07/08 07:11:10;;;;;;;1999.90;999.90;;;;;;;28.72;65.42;96116.06;5109309;28;20607;-78
2021/07/08 07:13:38;;;;;;;1999.90;999.90;;;;;;;29.03;63.22;96116.94;5109073;28;20202;-67
2021/07/08 07:16:05;;;;;;;1999.90;999.90;;;;;;;29.22;62.33;96115.59;5108935;28;20624;-73
2021/07/08 07:18:33;;;;;;;1999.90;999.90;;;;;;;29.08;62.59;96113.84;5109135;28;20230;-72
2021/07/08 07:21:00;;;;;;;1999.90;999.90;;;;;;;28.68;63.63;96118.00;5110211;28;20198;-66
2021/07/08 07:23:28;;;;;;;1999.90;999.90;;;;;;;28.91;63.02;96126.22;5112985;28;20194;-74
2021/07/08 07:25:55;;;;;;;1999.90;999.90;;;;;;;28.84;63.01;96118.25;5113128;28;20218;-73
2021/07/08 07:28:22;;;;;;;1999.90;999.90;;;;;;;28.93;62.15;96117.81;5115405;27;20286;-72
2021/07/08 07:30:50;;;;;;;1999.90;999.90;;;;;;;29.17;64.53;96116.81;5112701;28;20203;-74
2021/07/08 07:33:18;;;;;;;1999.90;999.90;;;;;;;29.27;62.75;96118.59;5112704;28;20203;-74
2021/07/08 07:35:45;;;;;;;1999.90;999.90;;;;;;;29.48;63.56;96125.69;5113043;28;20220;-73
2021/07/08 07:38:12;;;;;;;1999.90;999.90;;;;;;;29.37;64.56;96117.00;5112979;28;20195;-73
2021/07/08 07:40:42;;;;;;;1999.90;999.90;;;;;;;29.49;63.39;96121.81;5112436;28;20238;-73
2021/07/08 07:43:09;;;;;;;1999.90;999.90;;;;;;;29.85;61.96;96116.78;5112582;28;20335;-73
2021/07/08 07:45:36;;;;;;;1999.90;999.90;;;;;;;30.25;60.57;96121.25;5112580;28;20210;-71
2021/07/08 07:48:04;;;;;;;1999.90;999.90;;;;;;;30.56;57.89;96121.19;5112601;28;20201;-73
2021/07/08 07:50:32;;;;;;;1999.90;999.90;;;;;;;30.53;58.34;96120.09;5112456;28;20187;-70
2021/07/08 07:53:00;;;;;;;1999.90;999.90;;;;;;;30.71;57.78;96117.88;5112327;28;20203;-71
2021/07/08 07:55:28;;;;;;;1999.90;999.90;;;;;;;30.87;57.80;96116.47;5112295;28;20199;-70
2021/07/08 07:57:58;;;;;;;1999.90;999.90;;;;;;;31.02;55.34;96110.47;5112293;28;20199;-71
2021/07/08 08:00:27;;;;;;;1999.90;999.90;;;;;;;31.06;54.61;96105.03;5112441;28;20267;-70
2021/07/08 08:02:54;;;;;;;1999.90;999.90;;;;;;;31.41;52.38;96099.00;5112888;28;20203;-72
2021/07/08 08:05:33;;;;;;;1999.90;999.90;;;;;;;31.46;52.20;96101.19;5112599;28;20334;-71
2021/07/08 08:10:46;;;;;;;1999.90;999.90;;;;;;;31.41;53.53;96101.69;5112210;28;20662;-70
2021/07/08 08:13:15;;;;;;;1999.90;999.90;;;;;;;31.69;51.40;96097.69;5112316;28;20276;-71
2021/07/08 08:15:44;;;;;;;1999.90;999.90;;;;;;;31.80;50.41;96100.16;5112376;28;20210;-71
2021/07/08 08:18:12;;;;;;;1999.90;999.90;;;;;;;31.67;50.06;96104.66;5112247;28;20281;-71
2021/07/08 08:20:39;;;;;;;1999.90;999.90;;;;;;;31.59;51.15;96096.72;5111743;28;20218;-70
2021/07/08 08:23:06;;;;;;;1999.90;999.90;;;;;;;31.87;50.06;96100.00;5111970;27;20210;-71
2021/07/08 08:25:34;;;;;;;1999.90;999.90;;;;;;;31.98;51.81;96087.81;5111673;28;20639;-71
2021/07/08 08:28:01;;;;;;;1999.90;999.90;;;;;;;32.23;48.73;96086.56;5111999;28;20192;-71
2021/07/08 08:30:30;;;;;;;1999.90;999.90;;;;;;;32.32;47.54;96086.72;5111640;28;20725;-71
2021/07/08 08:32:57;;;;;;;1999.90;999.90;;;;;;;32.45;49.71;96087.56;5111096;28;20202;-71
2021/07/08 08:35:24;;;;;;;1999.90;999.90;;;;;;;32.46;48.61;96084.47;5111548;28;20239;-71
2021/07/08 08:37:51;;;;;;;1999.90;999.90;;;;;;;32.06;51.89;96088.44;5111793;28;20331;-71
2021/07/08 08:40:19;;;;;;;1999.90;999.90;;;;;;;32.18;51.21;96095.88;5111558;27;20246;-72
2021/07/08 08:42:47;;;;;;;1999.90;999.90;;;;;;;32.56;47.52;96087.31;5111406;28;20219;-72
2021/07/08 08:45:17;;;;;;;1999.90;999.90;;;;;;;32.73;48.44;96086.13;5111452;28;20675;-71
2021/07/08 08:47:58;;;;;;;1999.90;999.90;;;;;;;33.19;46.55;96091.09;5111522;28;20605;-71
2021/07/08 08:50:26;;;;;;;1999.90;999.90;;;;;;;33.12;48.36;96091.28;5111373;28;20605;-72
2021/07/08 08:52:53;;;;;;;1999.90;999.90;;;;;;;33.34;45.96;96088.78;5111596;28;20199;-71
2021/07/08 08:55:21;;;;;;;1999.90;999.90;;;;;;;33.17;45.04;96096.19;5111221;27;20199;-72
2021/07/08 08:57:48;;;;;;;1999.90;999.90;;;;;;;33.11;46.40;96091.69;5111562;28;20207;-71
2021/07/08 09:00:41;;;;;;;1999.90;999.90;;;;;;;33.39;44.76;96095.59;5111314;28;20227;-71
2021/07/08 09:03:13;;;;;;;1999.90;999.90;;;;;;;33.37;45.22;96089.88;5100133;28;20196;-71
2021/07/08 09:05:41;;;;;;;1999.90;999.90;;;;;;;33.46;46.74;96093.47;5111352;28;20274;-72
2021/07/08 09:08:18;;;;;;;1999.90;999.90;;;;;;;33.91;43.52;96079.09;5111051;27;20584;-71
2021/07/08 09:10:47;;;;;;;1999.90;999.90;;;;;;;33.87;43.54;96084.59;5110975;28;20190;-71
2021/07/08 09:13:15;;;;;;;1999.90;999.90;;;;;;;33.35;43.65;96094.94;5111142;28;20677;-71
2021/07/08 09:15:42;;;;;;;1999.90;999.90;;;;;;;33.38;44.32;96088.66;5110837;28;20199;-71
2021/07/08 09:18:13;;;;;;;1999.90;999.90;;;;;;;33.62;43.37;96095.31;5110866;28;20199;-71
2021/07/08 09:20:40;;;;;;;1999.90;999.90;;;;;;;33.72;43.78;96099.69;5110786;28;20305;-71
2021/07/08 09:23:18;;;;;;;1999.90;999.90;;;;;;;33.79;45.48;96085.97;5110798;28;20195;-71
2021/07/08 09:25:47;;;;;;;1999.90;999.90;;;;;;;34.00;42.30;96088.06;5110644;28;20599;-71
2021/07/08 09:28:22;;;;;;;1999.90;999.90;;;;;;;33.83;42.73;96089.31;5113448;27;20195;-71
2021/07/08 09:31:01;;;;;;;1999.90;999.90;;;;;;;34.00;44.87;96093.44;5110461;28;20410;-71
2021/07/08 09:33:39;;;;;;;1999.90;999.90;;;;;;;33.79;44.12;96085.22;5110747;28;20639;-71
2021/07/08 09:36:08;;;;;;;1999.90;999.90;;;;;;;33.22;43.62;96084.88;5110752;28;20187;-71
2021/07/08 09:38:36;;;;;;;1999.90;999.90;;;;;;;33.17;44.12;96088.09;5110241;28;20195;-72
2021/07/08 09:41:09;;;;;;;1999.90;999.90;;;;;;;32.89;46.00;96084.16;5109895;28;20306;-72
2021/07/08 09:43:39;;;;;;;1999.90;999.90;;;;;;;32.95;44.91;96084.41;5110057;28;20647;-71
2021/07/08 09:46:07;;;;;;;1999.90;999.90;;;;;;;32.85;45.19;96085.44;5110531;28;20256;-72
2021/07/08 09:48:34;;;;;;;1999.90;999.90;;;;;;;33.02;44.72;96080.78;5110346;28;20620;-71
2021/07/08 09:51:03;;;;;;;1999.90;999.90;;;;;;;33.20;44.97;96075.69;5110364;28;20245;-71
2021/07/08 09:53:31;;;;;;;1999.90;999.90;;;;;;;33.26;44.26;96074.75;5110177;28;20593;-72
2021/07/08 09:56:05;;;;;;;1999.90;999.90;;;;;;;33.55;45.82;96079.34;5110372;28;20205;-71
2021/07/08 09:58:34;;;;;;;1999.90;999.90;;;;;;;34.07;43.30;96081.69;5109978;28;20195;-72
2021/07/08 10:01:13;;;;;;;1999.90;999.90;;;;;;;34.28;43.20;96080.28;5110153;28;20275;-72
2021/07/08 10:03:41;;;;;;;1999.90;999.90;;;;;;;34.53;41.56;96075.59;5109869;28;20671;-72
2021/07/08 10:06:11;;;;;;;1999.90;999.90;;;;;;;34.49;41.87;96085.00;5109936;28;20297;-71
2021/07/08 10:08:39;;;;;;;1999.90;999.90;;;;;;;34.44;41.56;96088.25;5109817;28;20229;-73
2021/07/08 10:11:06;;;;;;;1999.90;999.90;;;;;;;34.48;41.89;96088.88;5109814;28;20237;-71
2021/07/08 10:13:34;;;;;;;1999.90;999.90;;;;;;;34.74;42.18;96084.22;5109807;28;20203;-72
2021/07/08 10:16:05;;;;;;;1999.90;999.90;;;;;;;34.54;41.75;96084.47;5109655;28;20195;-72
2021/07/08 10:18:34;;;;;;;1999.90;999.90;;;;;;;34.64;42.52;96077.94;5109894;28;20202;-71
2021/07/08 10:21:02;;;;;;;1999.90;999.90;;;;;;;34.43;39.98;96087.50;5109850;28;20223;-72
2021/07/08 10:23:35;;;;;;;1999.90;999.90;;;;;;;34.21;42.26;96075.13;5109443;28;20195;-72
2021/07/08 10:26:04;;;;;;;1999.90;999.90;;;;;;;34.34;41.24;96079.31;5109850;28;20288;-72
2021/07/08 10:28:33;;;;;;;1999.90;999.90;;;;;;;34.68;41.79;96081.31;5109525;28;20256;-71
2021/07/08 10:31:01;;;;;;;1999.90;999.90;;;;;;;34.26;40.42;96082.66;5109301;28;20203;-73
2021/07/08 10:33:28;;;;;;;1999.90;999.90;;;;;;;34.23;42.26;96083.53;5109307;28;20203;-72
2021/07/08 10:35:56;;;;;;;1999.90;999.90;;;;;;;34.17;41.60;96075.94;5109621;28;20244;-71
2021/07/08 10:38:39;;;;;;;1999.90;999.90;;;;;;;34.49;41.28;96079.59;5109626;28;20221;-71
2021/07/08 10:41:41;;;;;;;1999.90;999.90;;;;;;;34.47;39.35;96082.00;5109070;28;20581;-72
2021/07/08 10:44:42;;;;;;;1999.90;999.90;;;;;;;33.96;40.55;96083.94;5109328;28;20200;-72
2021/07/08 10:47:32;;;;;;;1999.90;999.90;;;;;;;34.11;40.54;96077.69;5109592;28;20201;-72
2021/07/08 10:50:00;;;;;;;1999.90;999.90;;;;;;;34.06;40.15;96075.53;5109711;28;20587;-72
2021/07/08 10:52:44;;;;;;;1999.90;999.90;;;;;;;34.45;40.81;96079.72;5109312;28;20203;-71
2021/07/08 10:55:35;;;;;;;1999.90;999.90;;;;;;;34.36;40.62;96081.59;5108984;28;20259;-71
2021/07/08 10:58:04;;;;;;;1999.90;999.90;;;;;;;34.35;40.81;96069.28;5109398;28;20179;-71
2021/07/08 11:00:45;;;;;;;1999.90;999.90;;;;;;;34.50;39.85;96073.03;5109049;28;20279;-71